Koyo — JD2279 — position and weather

sailwx.info

Track history (hours):
 
Tides and Currents Weather Stations Pressure Air Temp Water Temp Dewpoint Dewpoint Depression Visibility Wind Speed Wind Dir Waves Ship Positions

Koyo

Last reported at 2015-May-06 06:34 UTC. Time now 2015-May-06 13:30 UTC.
Position N 34°36' E 134°55'.

Length 80 m; draft 3.6 m.

Type: Cargo ship. MMSI: 431301812.

Date/timePositionNaut miles runAvg speedWind from/ knotsBaromVisibWave heightAir tempDewpointWater temp
2015-May-06 06:34N 34°36' E 134°55'9 8.9
2015-May-06 05:34N 34°36' E 135°06'1312.5
2015-May-06 04:33N 34°39' E 135°21'3 3.4
2015-May-06 03:33N 34°38' E 135°25'4 4.5
2015-May-06 02:34N 34°38' E 135°20'4 4.5
2015-May-06 01:34N 34°39' E 135°14'0 0.1
2015-May-06 00:34N 34°39' E 135°15'2 2.1
2015-May-05 23:30N 34°41' E 135°13'0 0.0
2015-May-05 22:30N 34°41' E 135°13'0 0.0
2015-May-05 21:30N 34°41' E 135°13'0 0.0
2015-May-05 20:24N 34°41' E 135°13'0 0.0
2015-May-05 19:24N 34°41' E 135°13'0 0.1
2015-May-05 18:30N 34°41' E 135°13'0 0.0
2015-May-05 17:30N 34°41' E 135°13'0 0.0
2015-May-05 16:30N 34°41' E 135°13'0 0.0
2015-May-05 15:30N 34°41' E 135°13'0 0.0
2015-May-05 14:30N 34°41' E 135°13'0 0.0
2015-May-05 13:30N 34°41' E 135°13'0 0.0
2015-May-05 12:30N 34°41' E 135°13'0 0.0
2015-May-05 11:30N 34°41' E 135°13'0 0.0
2015-May-05 10:30N 34°41' E 135°13'0 0.0
2015-May-05 09:30N 34°41' E 135°13'0 0.0
2015-May-05 08:30N 34°41' E 135°13'0 0.0
2015-May-05 07:18N 34°41' E 135°13'0 0.0
2015-May-05 06:24N 34°41' E 135°13'0 0.1
2015-May-05 05:30N 34°41' E 135°13'0 0.0
2015-May-05 04:30N 34°41' E 135°13'0 0.0
2015-May-05 03:24N 34°41' E 135°13'0 0.1
2015-May-05 02:31N 34°41' E 135°13'0 0.0
2015-May-05 01:24N 34°41' E 135°13'0 0.0
2015-May-05 00:18N 34°41' E 135°13'0 0.0
2015-May-04 23:18N 34°41' E 135°13'0 0.1
2015-May-04 22:30N 34°41' E 135°13'0 0.0
2015-May-04 21:30N 34°41' E 135°13'0 0.0
2015-May-04 20:24N 34°41' E 135°13'0 0.0
2015-May-04 19:30N 34°41' E 135°13'0 0.0
2015-May-04 18:24N 34°41' E 135°13'0 0.0
2015-May-04 17:30N 34°41' E 135°13'0 0.0
2015-May-04 16:30N 34°41' E 135°13'0 0.0
2015-May-04 15:30N 34°41' E 135°13'0 0.0
2015-May-04 14:30N 34°41' E 135°13'0 0.0
2015-May-04 13:30N 34°41' E 135°13'0 0.0
2015-May-04 12:30N 34°41' E 135°13'0 0.0
2015-May-04 11:30N 34°41' E 135°13'0 0.0
2015-May-04 10:30N 34°41' E 135°13'0 0.0
2015-May-04 09:24N 34°41' E 135°13'0 0.0
2015-May-04 08:30N 34°41' E 135°13'0 0.0
2015-May-04 07:30N 34°41' E 135°13'0 0.0
2015-May-04 06:30N 34°41' E 135°13'0 0.0
2015-May-04 05:30N 34°41' E 135°13'0 0.0
2015-May-04 04:30N 34°41' E 135°13'0 0.0
2015-May-04 03:24N 34°41' E 135°13'0 0.0
2015-May-04 02:33N 34°41' E 135°13'2 2.3
2015-May-04 01:33N 34°39' E 135°15'0 0.0
2015-May-04 00:33N 34°39' E 135°15'1 0.9
2015-May-03 23:26N 34°39' E 135°15'0 0.0
2015-May-03 22:32N 34°39' E 135°15'0 0.0
2015-May-03 21:32N 34°39' E 135°15'0 0.0
2015-May-03 20:32N 34°39' E 135°15'0 0.0
2015-May-03 19:33N 34°39' E 135°15'1010.1
2015-May-03 18:33N 34°29' E 135°10'1111.3
2015-May-03 17:33N 34°20' E 135°02'1110.8
2015-May-03 16:33N 34°10' E 134°57'  
2015-May-01 03:30N 34°37' E 134°56'9 9.9
2015-May-01 02:33N 34°36' E 135°07'7 6.6
2015-May-01 01:33N 34°40' E 135°14'0 0.0
2015-May-01 00:33N 34°40' E 135°14'0 0.0
2015-Apr-30 23:33N 34°40' E 135°14'1 1.1
2015-Apr-30 22:32N 34°38' E 135°15'0 0.0
2015-Apr-30 21:33N 34°38' E 135°15'0 0.1
2015-Apr-30 20:33N 34°38' E 135°15'0 0.1
2015-Apr-30 19:33N 34°38' E 135°15'5 4.7
2015-Apr-30 18:33N 34°36' E 135°10'1111.4
2015-Apr-30 17:33N 34°36' E 134°56'8 0.2
2015-Apr-29 06:31N 34°33' E 134°47'1212.7
2015-Apr-29 05:33N 34°37' E 135°01'1111.5
2015-Apr-29 04:33N 34°39' E 135°15'1 1.0
2015-Apr-29 03:33N 34°40' E 135°14'0 0.1
2015-Apr-29 02:33N 34°40' E 135°14'0 0.0
2015-Apr-29 01:33N 34°40' E 135°14'1 1.0
2015-Apr-29 00:33N 34°39' E 135°15'8 8.4
2015-Apr-28 23:33N 34°35' E 135°06'1010.4
2015-Apr-28 22:33N 34°35' E 134°53'1 0.0
2015-Apr-27 04:33N 34°36' E 134°53'1212.0
2015-Apr-27 03:33N 34°36' E 135°08'7 6.6
2015-Apr-27 02:33N 34°39' E 135°15'0 0.0
2015-Apr-27 01:33N 34°39' E 135°15'0 0.0
2015-Apr-27 00:33N 34°39' E 135°15'0 0.0
2015-Apr-26 23:33N 34°39' E 135°15'2 2.5
2015-Apr-26 22:33N 34°42' E 135°13'0 0.0
2015-Apr-26 21:33N 34°42' E 135°13'0 0.0
2015-Apr-26 20:33N 34°42' E 135°13'0 0.0
2015-Apr-26 19:33N 34°42' E 135°13'0 0.0
2015-Apr-26 18:33N 34°42' E 135°13'0 0.0
2015-Apr-26 17:33N 34°42' E 135°13'0 0.0
2015-Apr-26 16:33N 34°41' E 135°13'0 0.0
2015-Apr-26 15:33N 34°42' E 135°13'0 0.0
2015-Apr-26 14:33N 34°42' E 135°13'0 0.0
2015-Apr-26 13:33N 34°42' E 135°13'0 0.0
2015-Apr-26 12:33N 34°42' E 135°13'0 0.0
2015-Apr-26 11:33N 34°42' E 135°13'0 0.0
2015-Apr-26 10:33N 34°42' E 135°13'0 0.0
2015-Apr-26 09:33N 34°42' E 135°13'0 0.0
2015-Apr-26 08:33N 34°42' E 135°13'0 0.0
2015-Apr-26 07:33N 34°42' E 135°13'  
Track history (hours):
 
Tides and Currents Weather Stations Pressure Air Temp Water Temp Dewpoint Dewpoint Depression Visibility Wind Speed Wind Dir Waves Ship Positions

Koyo

Last reported at 2015-May-06 06:34 UTC. Time now 2015-May-06 13:30 UTC.
Position N 34°36' E 134°55'.

Length 80 m; draft 3.6 m.

Type: Cargo ship. MMSI: 431301812.

Date/timePositionNaut miles runAvg speedWind from/ knotsBaromVisibWave heightAir tempDewpointWater temp
2015-May-06 06:34N 34°36' E 134°55'9 8.9
2015-May-06 05:34N 34°36' E 135°06'1312.5
2015-May-06 04:33N 34°39' E 135°21'3 3.4
2015-May-06 03:33N 34°38' E 135°25'4 4.5
2015-May-06 02:34N 34°38' E 135°20'4 4.5
2015-May-06 01:34N 34°39' E 135°14'0 0.1
2015-May-06 00:34N 34°39' E 135°15'2 2.1
2015-May-05 23:30N 34°41' E 135°13'0 0.0
2015-May-05 22:30N 34°41' E 135°13'0 0.0
2015-May-05 21:30N 34°41' E 135°13'0 0.0
2015-May-05 20:24N 34°41' E 135°13'0 0.0
2015-May-05 19:24N 34°41' E 135°13'0 0.1
2015-May-05 18:30N 34°41' E 135°13'0 0.0
2015-May-05 17:30N 34°41' E 135°13'0 0.0
2015-May-05 16:30N 34°41' E 135°13'0 0.0
2015-May-05 15:30N 34°41' E 135°13'0 0.0
2015-May-05 14:30N 34°41' E 135°13'0 0.0
2015-May-05 13:30N 34°41' E 135°13'0 0.0
2015-May-05 12:30N 34°41' E 135°13'0 0.0
2015-May-05 11:30N 34°41' E 135°13'0 0.0
2015-May-05 10:30N 34°41' E 135°13'0 0.0
2015-May-05 09:30N 34°41' E 135°13'0 0.0
2015-May-05 08:30N 34°41' E 135°13'0 0.0
2015-May-05 07:18N 34°41' E 135°13'0 0.0
2015-May-05 06:24N 34°41' E 135°13'0 0.1
2015-May-05 05:30N 34°41' E 135°13'0 0.0
2015-May-05 04:30N 34°41' E 135°13'0 0.0
2015-May-05 03:24N 34°41' E 135°13'0 0.1
2015-May-05 02:31N 34°41' E 135°13'0 0.0
2015-May-05 01:24N 34°41' E 135°13'0 0.0
2015-May-05 00:18N 34°41' E 135°13'0 0.0
2015-May-04 23:18N 34°41' E 135°13'0 0.1
2015-May-04 22:30N 34°41' E 135°13'0 0.0
2015-May-04 21:30N 34°41' E 135°13'0 0.0
2015-May-04 20:24N 34°41' E 135°13'0 0.0
2015-May-04 19:30N 34°41' E 135°13'0 0.0
2015-May-04 18:24N 34°41' E 135°13'0 0.0
2015-May-04 17:30N 34°41' E 135°13'0 0.0
2015-May-04 16:30N 34°41' E 135°13'0 0.0
2015-May-04 15:30N 34°41' E 135°13'0 0.0
2015-May-04 14:30N 34°41' E 135°13'0 0.0
2015-May-04 13:30N 34°41' E 135°13'0 0.0
2015-May-04 12:30N 34°41' E 135°13'0 0.0
2015-May-04 11:30N 34°41' E 135°13'0 0.0
2015-May-04 10:30N 34°41' E 135°13'0 0.0
2015-May-04 09:24N 34°41' E 135°13'0 0.0
2015-May-04 08:30N 34°41' E 135°13'0 0.0
2015-May-04 07:30N 34°41' E 135°13'0 0.0
2015-May-04 06:30N 34°41' E 135°13'0 0.0
2015-May-04 05:30N 34°41' E 135°13'0 0.0
2015-May-04 04:30N 34°41' E 135°13'0 0.0
2015-May-04 03:24N 34°41' E 135°13'0 0.0
2015-May-04 02:33N 34°41' E 135°13'2 2.3
2015-May-04 01:33N 34°39' E 135°15'0 0.0
2015-May-04 00:33N 34°39' E 135°15'1 0.9
2015-May-03 23:26N 34°39' E 135°15'0 0.0
2015-May-03 22:32N 34°39' E 135°15'0 0.0
2015-May-03 21:32N 34°39' E 135°15'0 0.0
2015-May-03 20:32N 34°39' E 135°15'0 0.0
2015-May-03 19:33N 34°39' E 135°15'1010.1
2015-May-03 18:33N 34°29' E 135°10'1111.3
2015-May-03 17:33N 34°20' E 135°02'1110.8
2015-May-03 16:33N 34°10' E 134°57'  
2015-May-01 03:30N 34°37' E 134°56'9 9.9
2015-May-01 02:33N 34°36' E 135°07'7 6.6
2015-May-01 01:33N 34°40' E 135°14'0 0.0
2015-May-01 00:33N 34°40' E 135°14'0 0.0
2015-Apr-30 23:33N 34°40' E 135°14'1 1.1
2015-Apr-30 22:32N 34°38' E 135°15'0 0.0
2015-Apr-30 21:33N 34°38' E 135°15'0 0.1
2015-Apr-30 20:33N 34°38' E 135°15'0 0.1
2015-Apr-30 19:33N 34°38' E 135°15'5 4.7
2015-Apr-30 18:33N 34°36' E 135°10'1111.4
2015-Apr-30 17:33N 34°36' E 134°56'8 0.2
2015-Apr-29 06:31N 34°33' E 134°47'1212.7
2015-Apr-29 05:33N 34°37' E 135°01'1111.5
2015-Apr-29 04:33N 34°39' E 135°15'1 1.0
2015-Apr-29 03:33N 34°40' E 135°14'0 0.1
2015-Apr-29 02:33N 34°40' E 135°14'0 0.0
2015-Apr-29 01:33N 34°40' E 135°14'1 1.0
2015-Apr-29 00:33N 34°39' E 135°15'8 8.4
2015-Apr-28 23:33N 34°35' E 135°06'1010.4
2015-Apr-28 22:33N 34°35' E 134°53'1 0.0
2015-Apr-27 04:33N 34°36' E 134°53'1212.0
2015-Apr-27 03:33N 34°36' E 135°08'7 6.6
2015-Apr-27 02:33N 34°39' E 135°15'0 0.0
2015-Apr-27 01:33N 34°39' E 135°15'0 0.0
2015-Apr-27 00:33N 34°39' E 135°15'0 0.0
2015-Apr-26 23:33N 34°39' E 135°15'2 2.5
2015-Apr-26 22:33N 34°42' E 135°13'0 0.0
2015-Apr-26 21:33N 34°42' E 135°13'0 0.0
2015-Apr-26 20:33N 34°42' E 135°13'0 0.0
2015-Apr-26 19:33N 34°42' E 135°13'0 0.0
2015-Apr-26 18:33N 34°42' E 135°13'0 0.0
2015-Apr-26 17:33N 34°42' E 135°13'0 0.0
2015-Apr-26 16:33N 34°41' E 135°13'0 0.0
2015-Apr-26 15:33N 34°42' E 135°13'0 0.0
2015-Apr-26 14:33N 34°42' E 135°13'0 0.0
2015-Apr-26 13:33N 34°42' E 135°13'0 0.0
2015-Apr-26 12:33N 34°42' E 135°13'0 0.0
2015-Apr-26 11:33N 34°42' E 135°13'0 0.0
2015-Apr-26 10:33N 34°42' E 135°13'0 0.0
2015-Apr-26 09:33N 34°42' E 135°13'0 0.0
2015-Apr-26 08:33N 34°42' E 135°13'0 0.0
2015-Apr-26 07:33N 34°42' E 135°13'  

Dump ship's entire track history